createdAt,value
2018-08-12T00:00:42.850Z,1.27
2018-08-12T00:03:12.084Z,1.40
2018-08-12T00:05:41.301Z,1.47
2018-08-12T00:08:10.572Z,1.57
2018-08-12T00:10:39.871Z,1.30
2018-08-12T00:13:09.093Z,1.37
2018-08-12T00:15:38.325Z,1.40
2018-08-12T00:18:07.564Z,1.22
2018-08-12T00:20:36.784Z,1.20
2018-08-12T00:23:06.019Z,1.47
2018-08-12T00:25:35.237Z,1.40
2018-08-12T00:28:04.469Z,1.50
2018-08-12T00:30:33.693Z,1.52
2018-08-12T00:33:02.896Z,1.30
2018-08-12T00:35:32.163Z,1.45
2018-08-12T00:38:01.368Z,1.40
2018-08-12T00:40:30.643Z,1.40
2018-08-12T00:42:59.869Z,1.50
2018-08-12T00:45:29.189Z,1.10
2018-08-12T00:47:58.487Z,1.50
2018-08-12T00:50:27.708Z,1.55
2018-08-12T00:52:57.144Z,1.60
2018-08-12T00:55:26.436Z,1.50
2018-08-12T00:57:55.680Z,1.50
2018-08-12T01:00:24.961Z,1.57
2018-08-12T01:02:54.182Z,1.40
2018-08-12T01:05:23.449Z,1.27
2018-08-12T01:07:52.713Z,1.47
2018-08-12T01:10:21.969Z,1.12
2018-08-12T01:12:51.209Z,1.60
2018-08-12T01:15:22.020Z,1.15
2018-08-12T01:17:51.285Z,1.30
2018-08-12T01:20:23.009Z,1.60
2018-08-12T01:22:52.247Z,1.40
2018-08-12T01:25:21.916Z,1.30
2018-08-12T01:27:51.108Z,1.27
2018-08-12T01:30:21.576Z,1.52
2018-08-12T01:32:50.834Z,1.37
2018-08-12T01:35:20.126Z,1.27
2018-08-12T01:37:49.915Z,1.55
2018-08-12T01:40:19.751Z,1.60
2018-08-12T01:42:49.041Z,1.32
2018-08-12T01:45:20.058Z,1.32
2018-08-12T01:47:49.501Z,1.40
2018-08-12T01:50:19.862Z,1.40
2018-08-12T01:52:49.077Z,1.98
2018-08-12T01:55:18.504Z,1.15
2018-08-12T01:57:47.705Z,1.47
2018-08-12T02:00:20.269Z,1.55
2018-08-12T02:02:49.824Z,1.52
2018-08-12T02:05:19.415Z,1.40
2018-08-12T02:07:48.688Z,1.22
2018-08-12T02:10:17.894Z,1.50
2018-08-12T02:12:47.085Z,1.67
2018-08-12T02:15:16.322Z,1.57
2018-08-12T02:17:45.530Z,1.37
2018-08-12T02:20:14.737Z,1.40
2018-08-12T02:22:43.961Z,1.60
2018-08-12T02:25:13.417Z,1.50
2018-08-12T02:27:42.625Z,1.25
2018-08-12T02:30:13.057Z,1.40
2018-08-12T02:32:43.173Z,1.20
2018-08-12T02:35:12.406Z,1.30
2018-08-12T02:37:42.617Z,1.20
2018-08-12T02:40:11.945Z,1.30
2018-08-12T02:42:41.215Z,1.55
2018-08-12T02:45:14.575Z,1.45
2018-08-12T02:47:43.867Z,1.10
2018-08-12T02:50:13.106Z,1.55
2018-08-12T02:52:42.314Z,1.20
2018-08-12T02:55:12.535Z,1.37
2018-08-12T02:57:41.826Z,1.47
2018-08-12T03:00:12.821Z,1.47
2018-08-12T03:02:42.072Z,1.52
2018-08-12T03:05:11.511Z,1.30
2018-08-12T03:07:40.754Z,1.30
2018-08-12T03:10:10.345Z,1.52
2018-08-12T03:12:39.570Z,1.20
2018-08-12T03:15:10.413Z,1.22
2018-08-12T03:17:39.929Z,1.45
2018-08-12T03:20:11.090Z,1.62
2018-08-12T03:22:40.300Z,1.70
2018-08-12T03:25:10.834Z,1.30
2018-08-12T03:27:40.224Z,1.50
2018-08-12T03:30:10.518Z,1.77
2018-08-12T03:32:40.086Z,1.40
2018-08-12T03:35:09.372Z,1.45
2018-08-12T03:37:38.670Z,1.50
2018-08-12T03:40:11.085Z,1.20
2018-08-12T03:42:40.515Z,1.15
2018-08-12T03:45:10.461Z,1.50
2018-08-12T03:47:39.724Z,1.37
2018-08-12T03:50:10.618Z,1.65
2018-08-12T03:52:40.118Z,1.27
2018-08-12T03:55:09.753Z,1.40
2018-08-12T03:57:39.193Z,1.70
2018-08-12T04:00:14.333Z,1.22
2018-08-12T04:02:43.584Z,1.57
2018-08-12T04:05:12.968Z,1.47
2018-08-12T04:07:42.434Z,1.52
2018-08-12T04:10:11.677Z,1.70
2018-08-12T04:12:41.177Z,1.50
2018-08-12T04:15:11.732Z,1.60
2018-08-12T04:17:41.336Z,1.37
2018-08-12T04:20:11.508Z,1.32
2018-08-12T04:22:41.180Z,1.62
2018-08-12T04:25:10.489Z,1.62
2018-08-12T04:27:39.717Z,1.50
2018-08-12T04:30:10.317Z,1.57
2018-08-12T04:32:39.576Z,1.57
2018-08-12T04:35:09.230Z,1.62
2018-08-12T04:37:38.490Z,1.57
2018-08-12T04:40:08.221Z,2.02
2018-08-12T04:42:37.436Z,1.47
2018-08-12T04:45:07.000Z,1.67
2018-08-12T04:47:36.380Z,1.30
2018-08-12T04:50:06.629Z,1.55
2018-08-12T04:52:36.133Z,1.50
2018-08-12T04:55:05.957Z,1.47
2018-08-12T04:57:35.254Z,1.70
2018-08-12T05:00:05.522Z,1.70
2018-08-12T05:02:34.741Z,1.62
2018-08-12T05:05:03.981Z,1.47
2018-08-12T05:07:34.264Z,1.70
2018-08-12T05:10:03.501Z,1.35
2018-08-12T05:12:32.745Z,1.60
2018-08-12T05:15:02.054Z,1.70
2018-08-12T05:17:31.298Z,1.75
2018-08-12T05:20:00.570Z,1.80
2018-08-12T05:22:29.832Z,1.45
2018-08-12T05:24:59.105Z,1.52
2018-08-12T05:27:28.436Z,1.30
2018-08-12T05:29:57.768Z,1.50
2018-08-12T05:32:27.101Z,1.47
2018-08-12T05:34:56.529Z,1.55
2018-08-12T05:37:25.802Z,1.52
2018-08-12T05:39:55.057Z,1.37
2018-08-12T05:42:24.337Z,1.60
2018-08-12T05:44:53.557Z,1.70
2018-08-12T05:47:23.177Z,1.60
2018-08-12T05:49:52.430Z,1.27
2018-08-12T05:52:21.665Z,1.40
2018-08-12T05:54:50.888Z,1.62
2018-08-12T05:57:20.262Z,1.35
2018-08-12T05:59:49.397Z,1.70
2018-08-12T06:02:18.673Z,1.40
2018-08-12T06:04:49.182Z,1.37
2018-08-12T06:07:20.913Z,1.40
2018-08-12T06:09:50.938Z,1.42
2018-08-12T06:12:20.561Z,1.65
2018-08-12T06:14:50.163Z,1.32
2018-08-12T06:17:19.789Z,1.42
2018-08-12T06:19:49.334Z,1.20
2018-08-12T06:22:18.909Z,1.12
2018-08-12T06:24:48.412Z,1.32
2018-08-12T06:27:17.868Z,1.20
2018-08-12T06:29:47.116Z,1.22
2018-08-12T06:32:16.448Z,1.17
2018-08-12T06:34:45.704Z,1.67
2018-08-12T06:37:15.153Z,1.25
2018-08-12T06:39:44.646Z,1.45
2018-08-12T06:42:14.265Z,1.12
2018-08-12T06:44:43.637Z,1.07
2018-08-12T06:47:13.613Z,1.42
2018-08-12T06:49:43.135Z,1.55
2018-08-12T06:52:12.551Z,1.10
2018-08-12T06:54:41.963Z,1.17
2018-08-12T06:57:11.285Z,1.10
2018-08-12T06:59:40.552Z,1.27
2018-08-12T07:02:09.873Z,1.10
2018-08-12T07:04:39.264Z,1.30
2018-08-12T07:07:08.703Z,1.12
2018-08-12T07:09:38.710Z,1.17
2018-08-12T07:12:08.009Z,1.60
2018-08-12T07:14:37.210Z,1.20
2018-08-12T07:17:06.539Z,0.80
2018-08-12T07:19:35.917Z,0.95
2018-08-12T07:22:05.418Z,0.93
2018-08-12T07:24:34.716Z,1.12
2018-08-12T07:27:04.045Z,1.00
2018-08-12T07:29:33.336Z,1.20
2018-08-12T07:32:02.765Z,1.00
2018-08-12T07:34:32.121Z,1.00
2018-08-12T07:37:01.757Z,1.00
2018-08-12T07:39:31.126Z,1.00
2018-08-12T07:42:00.527Z,0.88
2018-08-12T07:44:29.801Z,1.00
2018-08-12T07:46:59.109Z,1.20
2018-08-12T07:49:28.404Z,1.25
2018-08-12T07:51:57.726Z,0.90
2018-08-12T07:54:26.944Z,1.12
2018-08-12T07:56:56.380Z,1.20
2018-08-12T07:59:25.703Z,1.20
2018-08-12T08:01:55.892Z,1.22
2018-08-12T08:04:25.197Z,1.00
2018-08-12T08:06:54.471Z,1.10
2018-08-12T08:09:23.738Z,1.00
2018-08-12T08:11:53.098Z,0.78
2018-08-12T08:14:22.354Z,0.90
2018-08-12T08:16:51.629Z,1.02
2018-08-12T08:19:20.890Z,1.07
2018-08-12T08:21:50.128Z,1.10
2018-08-12T08:24:20.042Z,0.90
2018-08-12T08:26:49.389Z,1.00
2018-08-12T08:29:18.650Z,0.90
2018-08-12T08:31:48.071Z,1.05
2018-08-12T08:34:17.498Z,0.80
2018-08-12T08:36:46.713Z,1.07
2018-08-12T08:39:15.960Z,0.90
2018-08-12T08:41:45.169Z,1.20
2018-08-12T08:44:14.516Z,0.78
2018-08-12T08:46:43.816Z,0.78
2018-08-12T08:50:16.085Z,0.88
2018-08-12T08:52:45.414Z,1.20
2018-08-12T08:55:15.731Z,0.90
2018-08-12T08:57:45.544Z,1.00
2018-08-12T09:00:16.981Z,0.95
2018-08-12T09:02:47.660Z,1.00
2018-08-12T09:05:17.461Z,1.07
2018-08-12T09:07:46.845Z,0.93
2018-08-12T09:10:17.226Z,0.70
2018-08-12T09:12:46.533Z,0.95
2018-08-12T09:15:17.846Z,0.85
2018-08-12T09:17:47.730Z,0.98
2018-08-12T09:20:18.252Z,0.70
2018-08-12T09:22:47.483Z,1.00
2018-08-12T09:25:16.981Z,0.88
2018-08-12T09:27:46.234Z,0.93
2018-08-12T09:30:17.541Z,0.90
2018-08-12T09:32:47.601Z,0.88
2018-08-12T09:35:16.836Z,1.00
2018-08-12T09:37:46.081Z,1.07
2018-08-12T09:40:16.635Z,1.00
2018-08-12T09:42:46.864Z,1.10
2018-08-12T09:45:18.749Z,1.10
2018-08-12T09:47:48.106Z,1.00
2018-08-12T09:50:19.061Z,1.00
2018-08-12T09:52:49.469Z,0.88
2018-08-12T09:55:19.370Z,0.90
2018-08-12T09:57:48.670Z,0.95
2018-08-12T10:00:23.885Z,0.85
2018-08-12T10:02:54.866Z,0.80
2018-08-12T10:05:24.239Z,0.82
2018-08-12T10:07:53.524Z,0.93
2018-08-12T10:10:22.815Z,1.00
2018-08-12T10:12:52.077Z,1.00
2018-08-12T10:15:21.384Z,0.90
2018-08-12T10:17:52.614Z,1.07
2018-08-12T10:20:21.878Z,1.10
2018-08-12T10:22:51.185Z,1.17
2018-08-12T10:25:20.405Z,1.25
2018-08-12T10:27:49.626Z,0.93
2018-08-12T10:30:18.996Z,0.90
2018-08-12T10:32:48.263Z,0.98
2018-08-12T10:35:18.010Z,0.75
2018-08-12T10:37:47.332Z,0.70
2018-08-12T10:40:18.893Z,0.93
2018-08-12T10:42:48.903Z,0.95
2018-08-12T10:45:18.270Z,0.82
2018-08-12T10:47:47.475Z,1.10
2018-08-12T10:50:18.293Z,0.72
2018-08-12T10:52:48.419Z,0.70
2018-08-12T10:55:19.286Z,0.82
2018-08-12T10:57:48.544Z,0.85
2018-08-12T11:00:27.359Z,0.88
2018-08-12T11:02:56.774Z,0.85
2018-08-12T11:05:26.189Z,0.65
2018-08-12T11:07:57.073Z,0.80
2018-08-12T11:10:27.001Z,1.20
2018-08-12T11:12:56.297Z,0.72
2018-08-12T11:15:25.589Z,0.90
2018-08-12T11:17:55.009Z,0.60
2018-08-12T11:20:24.455Z,0.85
2018-08-12T11:22:53.747Z,0.90
2018-08-12T11:25:23.029Z,0.75
2018-08-12T11:27:52.262Z,0.90
2018-08-12T11:30:21.559Z,0.90
2018-08-12T11:32:50.868Z,0.90
2018-08-12T11:35:20.200Z,1.30
2018-08-12T11:37:49.409Z,0.70
2018-08-12T11:40:18.691Z,0.90
2018-08-12T11:42:47.909Z,0.72
2018-08-12T11:45:18.732Z,0.88
2018-08-12T11:47:49.074Z,1.00
2018-08-12T11:50:18.901Z,0.90
2018-08-12T11:52:48.530Z,1.25
2018-08-12T11:55:20.205Z,0.80
2018-08-12T11:57:49.544Z,1.10
2018-08-12T12:00:21.013Z,0.90
2018-08-12T12:02:51.372Z,0.85
2018-08-12T12:05:20.608Z,0.78
2018-08-12T12:07:49.966Z,0.80
2018-08-12T12:10:20.985Z,0.80
2018-08-12T12:12:51.132Z,0.70
2018-08-12T12:15:20.654Z,0.88
2018-08-12T12:17:50.125Z,0.70
2018-08-12T12:20:20.128Z,0.93
2018-08-12T12:22:49.411Z,0.95
2018-08-12T12:25:19.941Z,0.70
2018-08-12T12:27:49.164Z,1.05
2018-08-12T12:30:20.509Z,0.95
2018-08-12T12:32:50.927Z,0.90
2018-08-12T12:35:20.195Z,1.00
2018-08-12T12:37:49.497Z,0.78
2018-08-12T12:40:19.591Z,0.93
2018-08-12T12:42:49.268Z,0.70
2018-08-12T12:45:18.712Z,1.02
2018-08-12T12:47:48.013Z,0.68
2018-08-12T12:50:20.632Z,0.70
2018-08-12T12:52:50.857Z,0.90
2018-08-12T12:55:21.098Z,0.85
2018-08-12T12:57:50.313Z,0.80
2018-08-12T13:00:20.750Z,0.98
2018-08-12T13:02:50.271Z,0.90
2018-08-12T13:05:20.691Z,0.72
2018-08-12T13:07:50.499Z,0.82
2018-08-12T13:10:20.251Z,0.70
2018-08-12T13:12:49.504Z,1.12
2018-08-12T13:15:18.991Z,0.80
2018-08-12T13:17:48.226Z,0.90
2018-08-12T13:20:19.636Z,0.60
2018-08-12T13:22:49.654Z,0.70
2018-08-12T13:25:20.815Z,0.60
2018-08-12T13:27:50.013Z,0.82
2018-08-12T13:30:20.179Z,0.82
2018-08-12T13:32:49.969Z,0.95
2018-08-12T13:35:19.222Z,1.00
2018-08-12T13:37:48.433Z,0.95
2018-08-12T13:40:18.131Z,0.95
2018-08-12T13:42:47.736Z,0.80
2018-08-12T13:45:16.970Z,1.00
2018-08-12T13:47:46.985Z,0.80
2018-08-12T13:50:20.718Z,1.17
2018-08-12T13:52:50.508Z,0.80
2018-08-12T13:55:20.253Z,0.70
2018-08-12T13:57:50.155Z,1.25
2018-08-12T14:00:23.916Z,1.05
2018-08-12T14:02:53.132Z,0.75
2018-08-12T14:05:22.746Z,0.80
2018-08-12T14:07:52.429Z,1.25
2018-08-12T14:10:21.648Z,0.90
2018-08-12T14:12:50.882Z,0.80
2018-08-12T14:15:20.704Z,1.10
2018-08-12T14:17:50.737Z,1.00
2018-08-12T14:20:21.279Z,1.00
2018-08-12T14:22:50.514Z,0.88
2018-08-12T14:25:19.784Z,0.90
2018-08-12T14:27:49.012Z,0.80
2018-08-12T14:30:19.583Z,0.80
2018-08-12T14:32:49.360Z,1.00
2018-08-12T14:35:18.881Z,0.88
2018-08-12T14:37:48.126Z,0.82
2018-08-12T14:40:17.385Z,0.90
2018-08-12T14:42:46.633Z,0.80
2018-08-12T14:45:16.763Z,0.80
2018-08-12T14:47:46.576Z,1.00
2018-08-12T14:50:19.011Z,0.80
2018-08-12T14:52:48.306Z,0.80
2018-08-12T14:55:20.280Z,0.80
2018-08-12T14:57:49.545Z,0.90
2018-08-12T15:00:21.132Z,1.02
2018-08-12T15:02:51.360Z,0.90
2018-08-12T15:05:20.682Z,0.85
2018-08-12T15:07:49.904Z,0.80
2018-08-12T15:10:19.145Z,0.80
2018-08-12T15:12:48.354Z,1.00
2018-08-12T15:15:17.937Z,0.90
2018-08-12T15:17:47.520Z,0.95
2018-08-12T15:20:17.511Z,1.12
2018-08-12T15:22:46.747Z,0.80
2018-08-12T15:25:18.958Z,0.90
2018-08-12T15:27:48.355Z,0.90
2018-08-12T15:30:17.791Z,1.00
2018-08-12T15:32:47.013Z,0.85
2018-08-12T15:35:16.197Z,0.85
2018-08-12T15:37:45.396Z,0.85
2018-08-12T15:40:15.625Z,1.07
2018-08-12T15:42:45.166Z,0.75
2018-08-12T15:45:15.766Z,1.00
2018-08-12T15:47:45.566Z,1.20
2018-08-12T15:50:15.117Z,0.98
2018-08-12T15:52:46.207Z,0.90
2018-08-12T15:55:15.625Z,0.90
2018-08-12T15:57:44.867Z,0.85
2018-08-12T16:00:17.013Z,1.07
2018-08-12T16:02:46.537Z,0.93
2018-08-12T16:05:15.768Z,0.90
2018-08-12T16:07:46.169Z,1.20
2018-08-12T16:10:20.132Z,0.80
2018-08-12T16:12:50.438Z,0.78
2018-08-12T16:15:19.911Z,0.93
2018-08-12T16:17:49.141Z,0.70
2018-08-12T16:20:18.361Z,0.90
2018-08-12T16:22:47.625Z,0.75
2018-08-12T16:25:18.439Z,0.80
2018-08-12T16:27:47.678Z,0.88
2018-08-12T16:30:18.407Z,0.78
2018-08-12T16:32:47.728Z,0.82
2018-08-12T16:35:17.722Z,1.10
2018-08-12T16:37:47.393Z,1.07
2018-08-12T16:40:19.552Z,1.12
2018-08-12T16:42:49.154Z,1.00
2018-08-12T16:45:19.058Z,1.07
2018-08-12T16:47:48.408Z,0.85
2018-08-12T16:50:17.605Z,0.93
2018-08-12T16:52:47.044Z,1.17
2018-08-12T16:55:17.937Z,1.02
2018-08-12T16:57:47.821Z,0.80
2018-08-12T17:00:20.201Z,0.88
2018-08-12T17:02:49.696Z,0.90
2018-08-12T17:05:20.671Z,1.10
2018-08-12T17:07:50.310Z,1.00
2018-08-12T17:10:20.162Z,0.95
2018-08-12T17:12:49.398Z,0.90
2018-08-12T17:15:20.222Z,0.90
2018-08-12T17:17:49.774Z,1.05
2018-08-12T17:20:20.377Z,1.02
2018-08-12T17:22:49.820Z,1.20
2018-08-12T17:25:19.068Z,0.90
2018-08-12T17:27:48.520Z,1.42
2018-08-12T17:30:18.156Z,0.90
2018-08-12T17:32:47.385Z,1.20
2018-08-12T17:35:16.579Z,1.70
2018-08-12T17:37:46.591Z,1.37
2018-08-12T17:40:16.419Z,1.40
2018-08-12T17:42:45.765Z,1.45
2018-08-12T17:45:15.239Z,1.22
2018-08-12T17:47:44.752Z,1.15
2018-08-12T17:50:15.353Z,1.22
2018-08-12T17:52:45.314Z,1.00
2018-08-12T17:55:14.575Z,0.98
2018-08-12T17:57:43.806Z,1.00
2018-08-12T18:00:15.835Z,1.25
2018-08-12T18:02:45.237Z,1.15
2018-08-12T18:05:14.696Z,1.20
2018-08-12T18:07:44.005Z,1.20
2018-08-12T18:10:13.220Z,1.60
2018-08-12T18:12:42.461Z,1.70
2018-08-12T18:15:12.327Z,1.42
2018-08-12T18:17:42.176Z,1.30
2018-08-12T18:20:11.674Z,1.22
2018-08-12T18:22:40.927Z,1.27
2018-08-12T18:25:11.625Z,1.45
2018-08-12T18:27:40.879Z,1.40
2018-08-12T18:30:13.091Z,1.25
2018-08-12T18:32:42.484Z,1.77
2018-08-12T18:35:12.352Z,2.12
2018-08-12T18:37:41.893Z,1.62
2018-08-12T18:40:12.141Z,1.67
2018-08-12T18:42:41.385Z,1.37
2018-08-12T18:45:10.628Z,1.35
2018-08-12T18:47:39.848Z,1.45
2018-08-12T18:50:10.469Z,1.70
2018-08-12T18:52:40.061Z,1.80
2018-08-12T18:55:11.252Z,1.82
2018-08-12T18:57:40.479Z,2.22
2018-08-12T19:00:12.520Z,1.85
2018-08-12T19:02:41.905Z,1.70
2018-08-12T19:05:12.324Z,1.67
2018-08-12T19:07:41.584Z,1.65
2018-08-12T19:10:11.637Z,1.30
2018-08-12T19:12:41.598Z,1.30
2018-08-12T19:15:11.593Z,1.40
2018-08-12T19:17:41.019Z,1.35
2018-08-12T19:20:11.037Z,1.30
2018-08-12T19:22:40.577Z,1.30
2018-08-12T19:25:10.370Z,1.72
2018-08-12T19:27:39.605Z,1.35
2018-08-12T19:30:11.565Z,1.55
2018-08-12T19:32:40.849Z,1.32
2018-08-12T19:35:11.013Z,1.57
2018-08-12T19:37:40.363Z,1.45
2018-08-12T19:40:09.955Z,1.40
2018-08-12T19:42:39.380Z,1.52
2018-08-12T19:45:10.037Z,1.00
2018-08-12T19:47:39.218Z,1.60
2018-08-12T19:50:08.929Z,1.50
2018-08-12T19:52:38.211Z,1.40
2018-08-12T19:55:07.962Z,1.40
2018-08-12T19:57:37.233Z,1.27
2018-08-12T20:00:09.356Z,1.75
2018-08-12T20:02:38.575Z,1.40
2018-08-12T20:05:07.991Z,1.57
2018-08-12T20:07:37.316Z,2.00
2018-08-12T20:10:08.891Z,1.20
2018-08-12T20:12:38.193Z,1.20
2018-08-12T20:15:09.585Z,1.40
2018-08-12T20:17:38.965Z,1.37
2018-08-12T20:20:10.629Z,1.30
2018-08-12T20:22:39.933Z,1.30
2018-08-12T20:25:09.747Z,1.40
2018-08-12T20:27:39.105Z,1.42
2018-08-12T20:30:11.362Z,1.45
2018-08-12T20:32:40.937Z,1.35
2018-08-12T20:35:10.302Z,1.52
2018-08-12T20:37:39.677Z,1.47
2018-08-12T20:40:09.262Z,1.30
2018-08-12T20:42:38.970Z,1.20
2018-08-12T20:45:08.537Z,1.10
2018-08-12T20:47:37.916Z,1.30
2018-08-12T20:50:07.922Z,1.55
2018-08-12T20:52:37.116Z,1.20
2018-08-12T20:55:06.749Z,1.40
2018-08-12T20:57:36.064Z,1.37
2018-08-12T21:00:07.709Z,1.17
2018-08-12T21:02:37.012Z,1.37
2018-08-12T21:05:06.464Z,1.35
2018-08-12T21:07:35.677Z,1.55
2018-08-12T21:10:05.701Z,1.40
2018-08-12T21:12:34.921Z,1.32
2018-08-12T21:15:04.470Z,1.27
2018-08-12T21:17:33.712Z,1.42
2018-08-12T21:20:02.997Z,1.40
2018-08-12T21:22:32.290Z,1.20
2018-08-12T21:25:01.813Z,1.30
2018-08-12T21:27:31.067Z,1.20
2018-08-12T21:30:00.321Z,1.40
2018-08-12T21:32:29.680Z,1.10
2018-08-12T21:34:58.911Z,1.30
2018-08-12T21:37:28.219Z,1.40
2018-08-12T21:39:57.461Z,1.32
2018-08-12T21:42:26.687Z,1.55
2018-08-12T21:45:02.610Z,1.25
2018-08-12T21:47:31.842Z,1.40
2018-08-12T21:50:01.229Z,1.40
2018-08-12T21:52:30.472Z,1.35
2018-08-12T21:54:59.745Z,1.30
2018-08-12T21:57:28.970Z,1.30
2018-08-12T21:59:58.249Z,1.40
2018-08-12T22:02:27.470Z,1.20
2018-08-12T22:04:56.737Z,1.47
2018-08-12T22:07:25.966Z,1.20
2018-08-12T22:09:55.213Z,1.20
2018-08-12T22:12:24.468Z,1.22
2018-08-12T22:14:53.690Z,1.40
2018-08-12T22:17:22.908Z,1.32
2018-08-12T22:19:52.119Z,1.50
2018-08-12T22:22:21.324Z,1.27
2018-08-12T22:24:50.529Z,1.32
2018-08-12T22:27:19.715Z,1.77
2018-08-12T22:29:48.924Z,1.20
2018-08-12T22:32:18.137Z,1.32
2018-08-12T22:34:47.369Z,1.27
2018-08-12T22:37:16.569Z,1.30
2018-08-12T22:39:45.794Z,1.30
2018-08-12T22:42:14.971Z,1.37
2018-08-12T22:44:44.175Z,1.25
2018-08-12T22:47:13.632Z,1.40
2018-08-12T22:49:42.877Z,1.65
2018-08-12T22:52:12.083Z,1.52
2018-08-12T22:54:41.305Z,1.40
2018-08-12T22:57:10.524Z,1.42
2018-08-12T22:59:39.734Z,1.35
2018-08-12T23:02:08.973Z,1.80
2018-08-12T23:04:38.186Z,1.50
2018-08-12T23:07:07.448Z,1.30
2018-08-12T23:09:36.676Z,1.50
2018-08-12T23:12:05.977Z,1.30
2018-08-12T23:14:35.220Z,1.50
2018-08-12T23:17:04.462Z,1.70
2018-08-12T23:19:33.690Z,1.30
2018-08-12T23:22:02.984Z,2.00
2018-08-12T23:24:32.208Z,1.37
2018-08-12T23:27:01.405Z,1.40
2018-08-12T23:29:30.645Z,1.42
2018-08-12T23:31:59.844Z,1.25
2018-08-12T23:34:29.075Z,1.27
2018-08-12T23:36:58.286Z,1.45
2018-08-12T23:39:27.631Z,1.30
2018-08-12T23:41:56.842Z,1.35
2018-08-12T23:44:26.074Z,1.22
2018-08-12T23:46:55.869Z,1.60
2018-08-12T23:49:25.102Z,1.17
2018-08-12T23:51:54.316Z,1.42
2018-08-12T23:54:23.541Z,1.40
2018-08-12T23:56:52.795Z,1.45
2018-08-12T23:59:22.000Z,1.32
